LGSO

Syros Island National Airport

Airport
ICAO code
LGSO
IATA Code
JSY
Summary
ICAO Region
EUR
ICAO Territory
Location

Syros, Cyclades

Serving
Syros
Elevation
236 ft
Coordinates
37° 25' 23" N , 24° 56' 59" E
KCC
Metar
LGSO 041050Z 15010KT 9999 FEW014 18/12 Q1014

Syros Island National Airport is an airport serving Syros Island in Greece. It is also known as Syros National Airport "Demetrius Vikelas"

Climatology

Warm mediterranean climate (Köppen climate classification Csa)

Runways

Designator Length Width Surface Rops
18/36 1080 30 ASP No/No

Airport map

Aerial View

SKYbrary Partners:

Safety knowledge contributed by: